Impacts METAR Board
IDs:

KIAD - Washington/Dulles In, VA, US

Updated at: 0800 UTC 16 Oct 2018
Potential Impact None Slight Moderate High
Time 15/20Z 15/21Z 15/22Z 15/23Z 16/00Z 16/01Z 16/02Z 16/03Z 16/04Z 16/05Z 16/06Z 16/07Z 16/08Z
Temp64 65 67 68 69 69 69 67 65 63 61 60 58
Dewpt63 64 65 65 66 66 66 60 57 53 51 47 44
Altim29.99 29.99 29.96 29.96 29.98 29.97 29.97 30.00 30.04 30.07 30.10 30.12 30.14
VIS10 10 10 10 10 10 10 10 10 10 10 10 10
CIG90 85 120 75 120 80 130 45 30 60 75 65 120
CoverOVCBKNBKNBKNBKNBKNBKNBKNOVCOVCBKNOVCOVC
FltCatVFRVFRVFRVFRVFRVFRVFRVFRMVFRVFRVFRVFRVFR
WX-RA-RA----------------------
WDir170210190200200210200310320330340330330
WSpd6 4 7 8 11 9 8 14 19 16 10 7 7
WGst-- -- -- -- -- -- -- 22 -- 23 -- -- --
Raw hourly METARs
KIAD 151952Z 17006KT 10SM -RA BKN090 OVC110 18/17 A2999 RMK AO2 RAB07E19B39 SLP156 P0000 T01780172
KIAD 152052Z 21004KT 10SM -RA FEW075 BKN085 BKN110 18/18 A2999 RMK AO2 RAE1958B50 SLP153 P0000 60000 T01830178 56015
KIAD 152201Z 19007KT 10SM FEW060 SCT090 BKN120 19/18 A2996 RMK AO2 T01940183
KIAD 152252Z 20008KT 10SM SCT055 BKN075 BKN120 20/18 A2996 RMK AO2 SLP145 T02000183
KIAD 152352Z 20011KT 10SM SCT060 BKN120 21/19 A2998 RMK AO2 SLP149 60000 T02060189 10206 20172 55003
KIAD 160052Z 21009KT 10SM FEW055 BKN080 BKN120 21/19 A2997 RMK AO2 SLP148 T02060189
KIAD 160152Z 20008KT 10SM SCT075 BKN130 BKN170 21/19 A2997 RMK AO2 SLP148 T02060189
KIAD 160301Z 31014G22KT 10SM FEW018 SCT028 BKN045 19/16 A3000 RMK AO2 WSHFT 0242 FROPA T01940156
KIAD 160352Z 32019KT 10SM FEW020 BKN030 OVC045 18/14 A3004 RMK AO2 WSHFT 0242 SLP171 FROPA T01830139
KIAD 160452Z 33016G23KT 10SM SCT030 BKN060 BKN090 OVC130 17/12 A3007 RMK AO2 PK WND 31028/0359 SLP180 T01720117 402110122
KIAD 160552Z 34010KT 10SM SCT030 SCT050 BKN075 BKN130 OVC250 16/11 A3010 RMK AO2 SLP191 T01610106 10211 20161 51032
KIAD 160652Z 33007KT 10SM BKN065 BKN140 OVC250 16/08 A3012 RMK AO2 SLP200 T01560083
KIAD 160752Z 33007KT 10SM BKN120 OVC250 14/07 A3014 RMK AO2 SLP205 T01440067



Page loaded:  08:10 UTC  |   01:10 AM Pacific  |   02:10 AM Mountain  |   03:10 AM Central  |   04:10 AM Eastern

 

ADVISORIES

FORECASTS

FORECASTS

OBSERVATIONS

USER TOOLS

ABOUT US